sensor_id;sensor_type;location;lat;lon;timestamp;P1;durP1;ratioP1;P2;durP2;ratioP2
13801;SDS011;6972;51.518;6.918;2023-09-30T00:01:31;15.77;;;5.38;;
13801;SDS011;6972;51.518;6.918;2023-09-30T00:04:00;15.15;;;5.20;;
13801;SDS011;6972;51.518;6.918;2023-09-30T00:06:27;12.85;;;5.22;;
13801;SDS011;6972;51.518;6.918;2023-09-30T00:08:53;13.80;;;5.00;;
13801;SDS011;6972;51.518;6.918;2023-09-30T00:11:21;12.48;;;5.35;;
13801;SDS011;6972;51.518;6.918;2023-09-30T00:13:47;11.70;;;5.18;;
13801;SDS011;6972;51.518;6.918;2023-09-30T00:16:14;13.38;;;5.60;;
13801;SDS011;6972;51.518;6.918;2023-09-30T00:18:42;18.88;;;5.90;;
13801;SDS011;6972;51.518;6.918;2023-09-30T00:21:09;10.20;;;4.78;;
13801;SDS011;6972;51.518;6.918;2023-09-30T00:23:36;15.25;;;5.43;;
13801;SDS011;6972;51.518;6.918;2023-09-30T00:26:02;13.00;;;5.30;;
13801;SDS011;6972;51.518;6.918;2023-09-30T00:28:28;14.40;;;5.75;;
13801;SDS011;6972;51.518;6.918;2023-09-30T00:30:54;16.52;;;5.50;;
13801;SDS011;6972;51.518;6.918;2023-09-30T00:33:20;17.10;;;6.00;;
13801;SDS011;6972;51.518;6.918;2023-09-30T00:35:46;14.73;;;5.38;;
13801;SDS011;6972;51.518;6.918;2023-09-30T00:38:12;14.15;;;5.68;;
13801;SDS011;6972;51.518;6.918;2023-09-30T00:40:39;15.75;;;5.68;;
13801;SDS011;6972;51.518;6.918;2023-09-30T00:43:05;16.48;;;6.13;;
13801;SDS011;6972;51.518;6.918;2023-09-30T00:45:31;12.57;;;5.55;;
13801;SDS011;6972;51.518;6.918;2023-09-30T00:47:57;16.42;;;6.25;;
13801;SDS011;6972;51.518;6.918;2023-09-30T00:50:23;17.35;;;6.03;;
13801;SDS011;6972;51.518;6.918;2023-09-30T00:52:49;16.77;;;5.97;;
13801;SDS011;6972;51.518;6.918;2023-09-30T00:55:16;15.95;;;5.78;;
13801;SDS011;6972;51.518;6.918;2023-09-30T00:57:43;16.42;;;5.85;;
13801;SDS011;6972;51.518;6.918;2023-09-30T01:00:09;17.38;;;6.25;;
13801;SDS011;6972;51.518;6.918;2023-09-30T01:02:40;14.88;;;5.43;;
13801;SDS011;6972;51.518;6.918;2023-09-30T01:05:07;12.55;;;5.28;;
13801;SDS011;6972;51.518;6.918;2023-09-30T01:07:33;14.43;;;5.75;;
13801;SDS011;6972;51.518;6.918;2023-09-30T01:10:00;18.38;;;5.35;;
13801;SDS011;6972;51.518;6.918;2023-09-30T01:12:26;13.70;;;5.35;;
13801;SDS011;6972;51.518;6.918;2023-09-30T01:14:56;17.02;;;5.53;;
13801;SDS011;6972;51.518;6.918;2023-09-30T01:17:23;12.93;;;5.30;;
13801;SDS011;6972;51.518;6.918;2023-09-30T01:19:49;15.50;;;5.13;;
13801;SDS011;6972;51.518;6.918;2023-09-30T01:22:17;13.52;;;5.18;;
13801;SDS011;6972;51.518;6.918;2023-09-30T01:24:43;10.82;;;5.05;;
13801;SDS011;6972;51.518;6.918;2023-09-30T01:27:12;14.02;;;5.00;;
13801;SDS011;6972;51.518;6.918;2023-09-30T01:29:41;12.90;;;4.82;;
13801;SDS011;6972;51.518;6.918;2023-09-30T01:32:07;16.35;;;5.22;;
13801;SDS011;6972;51.518;6.918;2023-09-30T01:34:34;10.13;;;4.75;;
13801;SDS011;6972;51.518;6.918;2023-09-30T01:37:00;12.82;;;4.72;;
13801;SDS011;6972;51.518;6.918;2023-09-30T01:39:27;16.13;;;6.05;;
13801;SDS011;6972;51.518;6.918;2023-09-30T01:41:53;12.80;;;4.78;;
13801;SDS011;6972;51.518;6.918;2023-09-30T01:44:19;13.65;;;4.90;;
13801;SDS011;6972;51.518;6.918;2023-09-30T01:46:45;13.73;;;4.97;;
13801;SDS011;6972;51.518;6.918;2023-09-30T01:49:11;13.70;;;4.82;;
13801;SDS011;6972;51.518;6.918;2023-09-30T01:51:37;13.13;;;5.70;;
13801;SDS011;6972;51.518;6.918;2023-09-30T01:54:03;11.70;;;5.18;;
13801;SDS011;6972;51.518;6.918;2023-09-30T01:56:30;12.10;;;5.57;;
13801;SDS011;6972;51.518;6.918;2023-09-30T01:58:56;13.40;;;5.47;;
13801;SDS011;6972;51.518;6.918;2023-09-30T02:01:23;15.80;;;5.60;;
13801;SDS011;6972;51.518;6.918;2023-09-30T02:03:49;14.63;;;5.70;;
13801;SDS011;6972;51.518;6.918;2023-09-30T02:06:15;13.23;;;5.90;;
13801;SDS011;6972;51.518;6.918;2023-09-30T02:08:41;15.15;;;5.60;;
13801;SDS011;6972;51.518;6.918;2023-09-30T02:11:09;11.07;;;5.20;;
13801;SDS011;6972;51.518;6.918;2023-09-30T02:13:37;16.42;;;5.85;;
13801;SDS011;6972;51.518;6.918;2023-09-30T02:16:03;14.27;;;4.82;;
13801;SDS011;6972;51.518;6.918;2023-09-30T02:18:29;12.30;;;5.20;;
13801;SDS011;6972;51.518;6.918;2023-09-30T02:21:00;16.92;;;5.28;;
13801;SDS011;6972;51.518;6.918;2023-09-30T02:23:26;10.75;;;5.25;;
13801;SDS011;6972;51.518;6.918;2023-09-30T02:25:52;15.38;;;5.47;;
13801;SDS011;6972;51.518;6.918;2023-09-30T02:28:18;14.43;;;6.25;;
13801;SDS011;6972;51.518;6.918;2023-09-30T02:30:44;14.05;;;5.40;;
13801;SDS011;6972;51.518;6.918;2023-09-30T02:33:10;13.98;;;5.57;;
13801;SDS011;6972;51.518;6.918;2023-09-30T02:35:36;16.30;;;5.70;;
13801;SDS011;6972;51.518;6.918;2023-09-30T02:38:03;9.77;;;5.25;;
13801;SDS011;6972;51.518;6.918;2023-09-30T02:40:30;14.40;;;5.75;;
13801;SDS011;6972;51.518;6.918;2023-09-30T02:42:56;19.23;;;6.03;;
13801;SDS011;6972;51.518;6.918;2023-09-30T02:45:22;15.73;;;5.47;;
13801;SDS011;6972;51.518;6.918;2023-09-30T02:47:48;16.75;;;5.97;;
13801;SDS011;6972;51.518;6.918;2023-09-30T02:50:14;14.00;;;6.22;;
13801;SDS011;6972;51.518;6.918;2023-09-30T02:52:40;10.98;;;5.55;;
13801;SDS011;6972;51.518;6.918;2023-09-30T02:55:07;11.77;;;6.43;;
13801;SDS011;6972;51.518;6.918;2023-09-30T02:57:33;14.77;;;5.63;;
13801;SDS011;6972;51.518;6.918;2023-09-30T03:00:01;14.38;;;5.32;;
13801;SDS011;6972;51.518;6.918;2023-09-30T03:02:37;13.73;;;5.68;;
13801;SDS011;6972;51.518;6.918;2023-09-30T03:05:03;15.15;;;6.00;;
13801;SDS011;6972;51.518;6.918;2023-09-30T03:07:29;13.40;;;5.97;;
13801;SDS011;6972;51.518;6.918;2023-09-30T03:09:58;16.00;;;5.80;;
13801;SDS011;6972;51.518;6.918;2023-09-30T03:12:25;18.20;;;6.72;;
13801;SDS011;6972;51.518;6.918;2023-09-30T03:14:51;12.55;;;5.80;;
13801;SDS011;6972;51.518;6.918;2023-09-30T03:17:17;15.73;;;6.00;;
13801;SDS011;6972;51.518;6.918;2023-09-30T03:19:44;13.80;;;6.18;;
13801;SDS011;6972;51.518;6.918;2023-09-30T03:22:10;14.48;;;5.22;;
13801;SDS011;6972;51.518;6.918;2023-09-30T03:24:37;12.32;;;5.80;;
13801;SDS011;6972;51.518;6.918;2023-09-30T03:27:04;14.30;;;5.45;;
13801;SDS011;6972;51.518;6.918;2023-09-30T03:29:30;11.80;;;5.53;;
13801;SDS011;6972;51.518;6.918;2023-09-30T03:31:56;15.63;;;5.57;;
13801;SDS011;6972;51.518;6.918;2023-09-30T03:34:25;12.60;;;5.47;;
13801;SDS011;6972;51.518;6.918;2023-09-30T03:36:51;10.68;;;5.32;;
13801;SDS011;6972;51.518;6.918;2023-09-30T03:39:20;14.30;;;5.13;;
13801;SDS011;6972;51.518;6.918;2023-09-30T03:41:55;12.88;;;5.32;;
13801;SDS011;6972;51.518;6.918;2023-09-30T03:44:23;13.02;;;5.60;;
13801;SDS011;6972;51.518;6.918;2023-09-30T03:46:50;12.57;;;5.65;;
13801;SDS011;6972;51.518;6.918;2023-09-30T03:49:16;8.10;;;4.70;;
13801;SDS011;6972;51.518;6.918;2023-09-30T03:51:44;12.13;;;5.60;;
13801;SDS011;6972;51.518;6.918;2023-09-30T03:54:11;13.13;;;5.45;;
13801;SDS011;6972;51.518;6.918;2023-09-30T03:56:37;14.63;;;5.45;;
13801;SDS011;6972;51.518;6.918;2023-09-30T03:59:04;12.52;;;5.10;;
13801;SDS011;6972;51.518;6.918;2023-09-30T04:01:30;12.38;;;5.20;;
13801;SDS011;6972;51.518;6.918;2023-09-30T04:03:56;13.05;;;5.43;;
13801;SDS011;6972;51.518;6.918;2023-09-30T04:06:22;16.17;;;5.38;;
13801;SDS011;6972;51.518;6.918;2023-09-30T04:08:48;14.15;;;5.43;;
13801;SDS011;6972;51.518;6.918;2023-09-30T04:11:15;13.75;;;5.97;;
13801;SDS011;6972;51.518;6.918;2023-09-30T04:13:45;14.60;;;5.40;;
13801;SDS011;6972;51.518;6.918;2023-09-30T04:16:11;14.93;;;5.40;;
13801;SDS011;6972;51.518;6.918;2023-09-30T04:18:37;13.02;;;5.82;;
13801;SDS011;6972;51.518;6.918;2023-09-30T04:21:06;14.75;;;5.55;;
13801;SDS011;6972;51.518;6.918;2023-09-30T04:23:33;12.13;;;5.72;;
13801;SDS011;6972;51.518;6.918;2023-09-30T04:26:01;20.50;;;6.60;;
13801;SDS011;6972;51.518;6.918;2023-09-30T04:28:27;14.43;;;5.93;;
13801;SDS011;6972;51.518;6.918;2023-09-30T04:30:54;14.30;;;6.13;;
13801;SDS011;6972;51.518;6.918;2023-09-30T04:33:20;13.25;;;6.10;;
13801;SDS011;6972;51.518;6.918;2023-09-30T04:35:49;15.57;;;5.93;;
13801;SDS011;6972;51.518;6.918;2023-09-30T04:38:15;15.50;;;6.18;;
13801;SDS011;6972;51.518;6.918;2023-09-30T04:40:41;13.48;;;5.80;;
13801;SDS011;6972;51.518;6.918;2023-09-30T04:43:09;17.25;;;6.50;;
13801;SDS011;6972;51.518;6.918;2023-09-30T04:45:36;17.88;;;6.50;;
13801;SDS011;6972;51.518;6.918;2023-09-30T04:48:02;16.30;;;5.97;;
13801;SDS011;6972;51.518;6.918;2023-09-30T04:50:29;14.90;;;6.15;;
13801;SDS011;6972;51.518;6.918;2023-09-30T04:52:55;14.52;;;6.03;;
13801;SDS011;6972;51.518;6.918;2023-09-30T04:55:22;13.63;;;5.85;;
13801;SDS011;6972;51.518;6.918;2023-09-30T04:57:48;13.05;;;5.65;;
13801;SDS011;6972;51.518;6.918;2023-09-30T05:00:15;14.40;;;5.70;;
13801;SDS011;6972;51.518;6.918;2023-09-30T05:02:49;16.33;;;5.53;;
13801;SDS011;6972;51.518;6.918;2023-09-30T05:05:15;14.13;;;6.22;;
13801;SDS011;6972;51.518;6.918;2023-09-30T05:07:41;15.52;;;6.18;;
13801;SDS011;6972;51.518;6.918;2023-09-30T05:10:08;14.85;;;5.82;;
13801;SDS011;6972;51.518;6.918;2023-09-30T05:12:35;12.98;;;6.20;;
13801;SDS011;6972;51.518;6.918;2023-09-30T05:15:01;11.73;;;6.03;;
13801;SDS011;6972;51.518;6.918;2023-09-30T05:17:28;16.15;;;6.30;;
13801;SDS011;6972;51.518;6.918;2023-09-30T05:19:56;18.65;;;6.38;;
13801;SDS011;6972;51.518;6.918;2023-09-30T05:22:25;17.50;;;6.63;;
13801;SDS011;6972;51.518;6.918;2023-09-30T05:24:52;11.52;;;5.68;;
13801;SDS011;6972;51.518;6.918;2023-09-30T05:27:18;16.52;;;6.18;;
13801;SDS011;6972;51.518;6.918;2023-09-30T05:29:44;13.82;;;6.47;;
13801;SDS011;6972;51.518;6.918;2023-09-30T05:32:11;15.45;;;6.75;;
13801;SDS011;6972;51.518;6.918;2023-09-30T05:34:39;22.50;;;6.72;;
13801;SDS011;6972;51.518;6.918;2023-09-30T05:37:05;14.52;;;6.18;;
13801;SDS011;6972;51.518;6.918;2023-09-30T05:39:31;12.20;;;6.50;;
13801;SDS011;6972;51.518;6.918;2023-09-30T05:42:00;15.68;;;6.55;;
13801;SDS011;6972;51.518;6.918;2023-09-30T05:44:27;18.58;;;6.97;;
13801;SDS011;6972;51.518;6.918;2023-09-30T05:46:54;19.75;;;7.15;;
13801;SDS011;6972;51.518;6.918;2023-09-30T05:49:20;18.65;;;7.47;;
13801;SDS011;6972;51.518;6.918;2023-09-30T05:51:46;13.35;;;6.80;;
13801;SDS011;6972;51.518;6.918;2023-09-30T05:54:12;14.80;;;7.15;;
13801;SDS011;6972;51.518;6.918;2023-09-30T05:56:38;15.55;;;7.00;;
13801;SDS011;6972;51.518;6.918;2023-09-30T05:59:08;15.27;;;7.13;;
13801;SDS011;6972;51.518;6.918;2023-09-30T06:01:34;18.45;;;7.57;;
13801;SDS011;6972;51.518;6.918;2023-09-30T06:04:01;16.88;;;7.28;;
13801;SDS011;6972;51.518;6.918;2023-09-30T06:06:27;12.60;;;7.28;;
13801;SDS011;6972;51.518;6.918;2023-09-30T06:08:55;14.50;;;7.00;;
13801;SDS011;6972;51.518;6.918;2023-09-30T06:11:23;15.32;;;7.35;;
13801;SDS011;6972;51.518;6.918;2023-09-30T06:13:50;17.67;;;7.72;;
13801;SDS011;6972;51.518;6.918;2023-09-30T06:16:18;15.48;;;8.32;;
13801;SDS011;6972;51.518;6.918;2023-09-30T06:18:44;19.17;;;7.63;;
13801;SDS011;6972;51.518;6.918;2023-09-30T06:21:10;16.05;;;8.38;;
13801;SDS011;6972;51.518;6.918;2023-09-30T06:23:36;17.85;;;7.50;;
13801;SDS011;6972;51.518;6.918;2023-09-30T06:26:03;15.00;;;8.40;;
13801;SDS011;6972;51.518;6.918;2023-09-30T06:28:29;16.58;;;7.85;;
13801;SDS011;6972;51.518;6.918;2023-09-30T06:30:56;17.50;;;8.18;;
13801;SDS011;6972;51.518;6.918;2023-09-30T06:33:23;15.77;;;8.43;;
13801;SDS011;6972;51.518;6.918;2023-09-30T06:35:50;13.05;;;8.10;;
13801;SDS011;6972;51.518;6.918;2023-09-30T06:38:19;16.35;;;8.95;;
13801;SDS011;6972;51.518;6.918;2023-09-30T06:40:45;17.25;;;9.43;;
13801;SDS011;6972;51.518;6.918;2023-09-30T06:43:12;18.33;;;8.75;;
13801;SDS011;6972;51.518;6.918;2023-09-30T06:45:40;15.32;;;9.50;;
13801;SDS011;6972;51.518;6.918;2023-09-30T06:48:07;15.20;;;9.35;;
13801;SDS011;6972;51.518;6.918;2023-09-30T06:50:37;17.75;;;9.48;;
13801;SDS011;6972;51.518;6.918;2023-09-30T06:53:03;18.50;;;9.80;;
13801;SDS011;6972;51.518;6.918;2023-09-30T06:55:30;15.43;;;9.63;;
13801;SDS011;6972;51.518;6.918;2023-09-30T06:57:56;18.27;;;10.40;;
13801;SDS011;6972;51.518;6.918;2023-09-30T07:00:26;18.90;;;10.05;;
13801;SDS011;6972;51.518;6.918;2023-09-30T07:02:52;23.02;;;10.25;;
13801;SDS011;6972;51.518;6.918;2023-09-30T07:05:19;18.50;;;10.43;;
13801;SDS011;6972;51.518;6.918;2023-09-30T07:07:45;19.83;;;10.90;;
13801;SDS011;6972;51.518;6.918;2023-09-30T07:10:11;17.75;;;10.13;;
13801;SDS011;6972;51.518;6.918;2023-09-30T07:12:38;18.50;;;10.20;;
13801;SDS011;6972;51.518;6.918;2023-09-30T07:15:04;17.67;;;9.60;;
13801;SDS011;6972;51.518;6.918;2023-09-30T07:17:31;21.98;;;10.48;;
13801;SDS011;6972;51.518;6.918;2023-09-30T07:19:58;17.73;;;9.75;;
13801;SDS011;6972;51.518;6.918;2023-09-30T07:22:24;19.98;;;10.02;;
13801;SDS011;6972;51.518;6.918;2023-09-30T07:24:50;19.15;;;10.32;;
13801;SDS011;6972;51.518;6.918;2023-09-30T07:27:17;18.05;;;9.63;;
13801;SDS011;6972;51.518;6.918;2023-09-30T07:29:44;14.90;;;9.50;;
13801;SDS011;6972;51.518;6.918;2023-09-30T07:32:10;16.83;;;10.18;;
13801;SDS011;6972;51.518;6.918;2023-09-30T07:34:36;17.73;;;9.98;;
13801;SDS011;6972;51.518;6.918;2023-09-30T07:37:02;16.25;;;10.25;;
13801;SDS011;6972;51.518;6.918;2023-09-30T07:39:29;19.70;;;9.93;;
13801;SDS011;6972;51.518;6.918;2023-09-30T07:41:55;22.10;;;10.55;;
13801;SDS011;6972;51.518;6.918;2023-09-30T07:44:21;20.15;;;9.95;;
13801;SDS011;6972;51.518;6.918;2023-09-30T07:46:48;18.85;;;10.90;;
13801;SDS011;6972;51.518;6.918;2023-09-30T07:49:14;15.98;;;10.07;;
13801;SDS011;6972;51.518;6.918;2023-09-30T07:51:40;16.33;;;9.75;;
13801;SDS011;6972;51.518;6.918;2023-09-30T07:54:06;20.98;;;11.98;;
13801;SDS011;6972;51.518;6.918;2023-09-30T07:56:32;17.73;;;10.48;;
13801;SDS011;6972;51.518;6.918;2023-09-30T07:58:59;18.35;;;10.52;;
13801;SDS011;6972;51.518;6.918;2023-09-30T08:01:25;18.90;;;10.65;;
13801;SDS011;6972;51.518;6.918;2023-09-30T08:03:51;22.05;;;11.05;;
13801;SDS011;6972;51.518;6.918;2023-09-30T08:06:17;19.05;;;10.68;;
13801;SDS011;6972;51.518;6.918;2023-09-30T08:08:43;18.05;;;10.52;;
13801;SDS011;6972;51.518;6.918;2023-09-30T08:11:09;22.17;;;10.45;;
13801;SDS011;6972;51.518;6.918;2023-09-30T08:13:35;16.08;;;9.98;;
13801;SDS011;6972;51.518;6.918;2023-09-30T08:16:01;15.95;;;9.88;;
13801;SDS011;6972;51.518;6.918;2023-09-30T08:18:27;18.75;;;10.00;;
13801;SDS011;6972;51.518;6.918;2023-09-30T08:20:53;17.13;;;10.15;;
13801;SDS011;6972;51.518;6.918;2023-09-30T08:23:19;14.55;;;9.45;;
13801;SDS011;6972;51.518;6.918;2023-09-30T08:25:46;18.40;;;9.98;;
13801;SDS011;6972;51.518;6.918;2023-09-30T08:28:12;14.00;;;10.10;;
13801;SDS011;6972;51.518;6.918;2023-09-30T08:30:38;16.17;;;10.20;;
13801;SDS011;6972;51.518;6.918;2023-09-30T08:33:04;13.48;;;8.93;;
13801;SDS011;6972;51.518;6.918;2023-09-30T08:35:36;18.58;;;9.90;;
13801;SDS011;6972;51.518;6.918;2023-09-30T08:38:03;15.85;;;9.98;;
13801;SDS011;6972;51.518;6.918;2023-09-30T08:40:29;14.32;;;8.63;;
13801;SDS011;6972;51.518;6.918;2023-09-30T08:42:55;17.00;;;8.35;;
13801;SDS011;6972;51.518;6.918;2023-09-30T08:45:21;15.32;;;8.65;;
13801;SDS011;6972;51.518;6.918;2023-09-30T08:47:47;14.50;;;7.78;;
13801;SDS011;6972;51.518;6.918;2023-09-30T08:50:15;17.58;;;8.18;;
13801;SDS011;6972;51.518;6.918;2023-09-30T08:52:43;14.32;;;8.40;;
13801;SDS011;6972;51.518;6.918;2023-09-30T08:55:09;15.93;;;8.95;;
13801;SDS011;6972;51.518;6.918;2023-09-30T08:57:42;15.88;;;8.77;;
13801;SDS011;6972;51.518;6.918;2023-09-30T09:00:11;23.15;;;9.75;;
13801;SDS011;6972;51.518;6.918;2023-09-30T09:02:38;17.08;;;8.98;;
13801;SDS011;6972;51.518;6.918;2023-09-30T09:05:04;14.90;;;8.38;;
13801;SDS011;6972;51.518;6.918;2023-09-30T09:07:31;15.27;;;8.43;;
13801;SDS011;6972;51.518;6.918;2023-09-30T09:12:34;19.40;;;9.10;;
13801;SDS011;6972;51.518;6.918;2023-09-30T09:15:00;14.32;;;8.00;;
13801;SDS011;6972;51.518;6.918;2023-09-30T09:17:39;16.10;;;7.15;;
13801;SDS011;6972;51.518;6.918;2023-09-30T09:20:07;11.63;;;6.60;;
13801;SDS011;6972;51.518;6.918;2023-09-30T09:22:41;12.15;;;6.70;;
13801;SDS011;6972;51.518;6.918;2023-09-30T09:25:07;18.95;;;7.45;;
13801;SDS011;6972;51.518;6.918;2023-09-30T09:27:34;17.60;;;6.82;;
13801;SDS011;6972;51.518;6.918;2023-09-30T09:30:14;12.35;;;6.68;;
13801;SDS011;6972;51.518;6.918;2023-09-30T09:32:51;10.95;;;6.95;;
13801;SDS011;6972;51.518;6.918;2023-09-30T09:35:21;16.33;;;7.50;;
13801;SDS011;6972;51.518;6.918;2023-09-30T09:37:57;18.40;;;8.85;;
13801;SDS011;6972;51.518;6.918;2023-09-30T09:40:25;14.00;;;7.93;;
13801;SDS011;6972;51.518;6.918;2023-09-30T09:42:51;13.32;;;6.60;;
13801;SDS011;6972;51.518;6.918;2023-09-30T09:45:20;14.95;;;7.82;;
13801;SDS011;6972;51.518;6.918;2023-09-30T09:47:48;14.18;;;7.40;;
13801;SDS011;6972;51.518;6.918;2023-09-30T09:50:14;12.50;;;6.85;;
13801;SDS011;6972;51.518;6.918;2023-09-30T09:52:41;13.40;;;6.22;;
13801;SDS011;6972;51.518;6.918;2023-09-30T09:55:10;12.55;;;6.60;;
13801;SDS011;6972;51.518;6.918;2023-09-30T09:57:36;11.13;;;5.80;;
13801;SDS011;6972;51.518;6.918;2023-09-30T10:00:03;10.65;;;6.05;;
13801;SDS011;6972;51.518;6.918;2023-09-30T10:02:39;12.52;;;6.10;;
13801;SDS011;6972;51.518;6.918;2023-09-30T10:05:05;12.57;;;6.25;;
13801;SDS011;6972;51.518;6.918;2023-09-30T10:10:17;11.45;;;4.95;;
13801;SDS011;6972;51.518;6.918;2023-09-30T10:12:44;11.52;;;4.80;;
13801;SDS011;6972;51.518;6.918;2023-09-30T10:15:44;11.52;;;4.68;;
13801;SDS011;6972;51.518;6.918;2023-09-30T10:18:05;9.43;;;5.05;;
13801;SDS011;6972;51.518;6.918;2023-09-30T10:20:32;11.38;;;4.40;;
13801;SDS011;6972;51.518;6.918;2023-09-30T10:28:40;8.93;;;4.30;;
13801;SDS011;6972;51.518;6.918;2023-09-30T10:31:20;8.80;;;4.50;;
13801;SDS011;6972;51.518;6.918;2023-09-30T10:36:32;10.55;;;4.53;;
13801;SDS011;6972;51.518;6.918;2023-09-30T10:38:58;9.13;;;5.28;;
13801;SDS011;6972;51.518;6.918;2023-09-30T10:51:50;11.50;;;4.38;;
13801;SDS011;6972;51.518;6.918;2023-09-30T10:54:21;9.30;;;3.90;;
13801;SDS011;6972;51.518;6.918;2023-09-30T10:56:48;8.73;;;4.22;;
13801;SDS011;6972;51.518;6.918;2023-09-30T10:59:24;7.50;;;3.72;;
13801;SDS011;6972;51.518;6.918;2023-09-30T11:01:50;8.05;;;3.88;;
13801;SDS011;6972;51.518;6.918;2023-09-30T11:04:17;6.80;;;3.83;;
13801;SDS011;6972;51.518;6.918;2023-09-30T11:06:44;6.50;;;3.78;;
13801;SDS011;6972;51.518;6.918;2023-09-30T11:09:15;7.68;;;3.63;;
13801;SDS011;6972;51.518;6.918;2023-09-30T11:11:51;8.38;;;4.10;;
13801;SDS011;6972;51.518;6.918;2023-09-30T11:14:22;8.10;;;4.53;;
13801;SDS011;6972;51.518;6.918;2023-09-30T11:16:52;7.78;;;4.32;;
13801;SDS011;6972;51.518;6.918;2023-09-30T11:19:18;8.10;;;3.80;;
13801;SDS011;6972;51.518;6.918;2023-09-30T11:21:55;7.47;;;3.33;;
13801;SDS011;6972;51.518;6.918;2023-09-30T11:24:22;9.40;;;3.08;;
13801;SDS011;6972;51.518;6.918;2023-09-30T11:26:52;8.20;;;3.20;;
13801;SDS011;6972;51.518;6.918;2023-09-30T11:29:18;6.93;;;3.00;;
13801;SDS011;6972;51.518;6.918;2023-09-30T11:31:47;9.93;;;3.00;;
13801;SDS011;6972;51.518;6.918;2023-09-30T11:34:15;8.18;;;3.50;;
13801;SDS011;6972;51.518;6.918;2023-09-30T11:36:47;5.18;;;2.97;;
13801;SDS011;6972;51.518;6.918;2023-09-30T11:41:49;8.32;;;3.22;;
13801;SDS011;6972;51.518;6.918;2023-09-30T11:44:15;6.35;;;2.80;;
13801;SDS011;6972;51.518;6.918;2023-09-30T11:46:52;6.40;;;2.83;;
13801;SDS011;6972;51.518;6.918;2023-09-30T11:49:29;6.53;;;3.10;;
13801;SDS011;6972;51.518;6.918;2023-09-30T11:51:56;6.43;;;3.63;;
13801;SDS011;6972;51.518;6.918;2023-09-30T11:54:27;12.13;;;3.45;;
13801;SDS011;6972;51.518;6.918;2023-09-30T11:56:54;8.52;;;3.72;;
13801;SDS011;6972;51.518;6.918;2023-09-30T11:59:20;7.18;;;3.70;;
13801;SDS011;6972;51.518;6.918;2023-09-30T12:01:47;7.45;;;3.30;;
13801;SDS011;6972;51.518;6.918;2023-09-30T12:04:14;7.13;;;3.30;;
13801;SDS011;6972;51.518;6.918;2023-09-30T12:06:42;6.68;;;3.15;;
13801;SDS011;6972;51.518;6.918;2023-09-30T12:09:08;5.22;;;2.95;;
13801;SDS011;6972;51.518;6.918;2023-09-30T12:11:38;9.02;;;3.47;;
13801;SDS011;6972;51.518;6.918;2023-09-30T12:14:04;5.07;;;2.88;;
13801;SDS011;6972;51.518;6.918;2023-09-30T12:16:31;6.85;;;2.78;;
13801;SDS011;6972;51.518;6.918;2023-09-30T12:18:57;7.82;;;2.80;;
13801;SDS011;6972;51.518;6.918;2023-09-30T12:21:23;6.10;;;2.58;;
13801;SDS011;6972;51.518;6.918;2023-09-30T12:23:49;7.15;;;2.80;;
13801;SDS011;6972;51.518;6.918;2023-09-30T12:26:16;5.03;;;2.78;;
13801;SDS011;6972;51.518;6.918;2023-09-30T12:28:45;6.03;;;2.80;;
13801;SDS011;6972;51.518;6.918;2023-09-30T12:31:11;7.75;;;3.00;;
13801;SDS011;6972;51.518;6.918;2023-09-30T12:33:38;5.53;;;2.90;;
13801;SDS011;6972;51.518;6.918;2023-09-30T12:36:05;6.38;;;2.92;;
13801;SDS011;6972;51.518;6.918;2023-09-30T12:38:32;9.65;;;3.03;;
13801;SDS011;6972;51.518;6.918;2023-09-30T12:40:58;7.60;;;3.20;;
13801;SDS011;6972;51.518;6.918;2023-09-30T12:43:25;6.13;;;2.95;;
13801;SDS011;6972;51.518;6.918;2023-09-30T12:45:51;5.30;;;2.45;;
13801;SDS011;6972;51.518;6.918;2023-09-30T12:48:17;6.25;;;2.80;;
13801;SDS011;6972;51.518;6.918;2023-09-30T12:50:44;6.60;;;3.10;;
13801;SDS011;6972;51.518;6.918;2023-09-30T12:53:10;6.10;;;2.95;;
13801;SDS011;6972;51.518;6.918;2023-09-30T12:55:36;6.53;;;3.10;;
13801;SDS011;6972;51.518;6.918;2023-09-30T12:58:02;6.25;;;2.97;;
13801;SDS011;6972;51.518;6.918;2023-09-30T13:00:29;9.73;;;3.33;;
13801;SDS011;6972;51.518;6.918;2023-09-30T13:02:57;6.53;;;2.95;;
13801;SDS011;6972;51.518;6.918;2023-09-30T13:05:23;7.45;;;2.90;;
13801;SDS011;6972;51.518;6.918;2023-09-30T13:07:50;6.63;;;3.42;;
13801;SDS011;6972;51.518;6.918;2023-09-30T13:10:17;7.32;;;3.33;;
13801;SDS011;6972;51.518;6.918;2023-09-30T13:12:44;7.40;;;3.70;;
13801;SDS011;6972;51.518;6.918;2023-09-30T13:15:10;10.77;;;3.65;;
13801;SDS011;6972;51.518;6.918;2023-09-30T13:17:36;6.53;;;3.35;;
13801;SDS011;6972;51.518;6.918;2023-09-30T13:20:02;8.23;;;3.47;;
13801;SDS011;6972;51.518;6.918;2023-09-30T13:22:30;6.75;;;3.58;;
13801;SDS011;6972;51.518;6.918;2023-09-30T13:24:57;7.10;;;3.40;;
13801;SDS011;6972;51.518;6.918;2023-09-30T13:27:23;8.45;;;3.50;;
13801;SDS011;6972;51.518;6.918;2023-09-30T13:29:49;7.10;;;3.25;;
13801;SDS011;6972;51.518;6.918;2023-09-30T13:32:16;7.30;;;3.13;;
13801;SDS011;6972;51.518;6.918;2023-09-30T13:34:43;8.80;;;3.20;;
13801;SDS011;6972;51.518;6.918;2023-09-30T13:37:09;6.13;;;3.38;;
13801;SDS011;6972;51.518;6.918;2023-09-30T13:39:36;7.82;;;3.47;;
13801;SDS011;6972;51.518;6.918;2023-09-30T14:11:48;6.25;;;2.70;;
13801;SDS011;6972;51.518;6.918;2023-09-30T14:14:14;8.38;;;3.20;;
13801;SDS011;6972;51.518;6.918;2023-09-30T14:16:40;8.07;;;3.30;;
13801;SDS011;6972;51.518;6.918;2023-09-30T14:19:06;6.18;;;2.95;;
13801;SDS011;6972;51.518;6.918;2023-09-30T14:21:33;7.30;;;3.00;;
13801;SDS011;6972;51.518;6.918;2023-09-30T14:23:59;6.82;;;2.92;;
13801;SDS011;6972;51.518;6.918;2023-09-30T14:26:26;5.80;;;2.90;;
13801;SDS011;6972;51.518;6.918;2023-09-30T14:28:53;6.85;;;3.03;;
13801;SDS011;6972;51.518;6.918;2023-09-30T14:31:19;5.50;;;2.85;;
13801;SDS011;6972;51.518;6.918;2023-09-30T14:33:45;6.93;;;3.20;;
13801;SDS011;6972;51.518;6.918;2023-09-30T14:36:15;6.82;;;2.80;;
13801;SDS011;6972;51.518;6.918;2023-09-30T14:38:42;8.27;;;3.03;;
13801;SDS011;6972;51.518;6.918;2023-09-30T14:41:10;9.32;;;3.38;;
13801;SDS011;6972;51.518;6.918;2023-09-30T14:43:40;6.35;;;3.00;;
13801;SDS011;6972;51.518;6.918;2023-09-30T14:46:07;6.43;;;3.10;;
13801;SDS011;6972;51.518;6.918;2023-09-30T14:48:33;9.52;;;3.03;;
13801;SDS011;6972;51.518;6.918;2023-09-30T14:51:01;5.57;;;2.72;;
13801;SDS011;6972;51.518;6.918;2023-09-30T14:53:30;7.65;;;2.97;;
13801;SDS011;6972;51.518;6.918;2023-09-30T14:55:57;8.27;;;3.45;;
13801;SDS011;6972;51.518;6.918;2023-09-30T14:58:23;7.57;;;3.17;;
13801;SDS011;6972;51.518;6.918;2023-09-30T15:00:49;7.10;;;3.40;;
13801;SDS011;6972;51.518;6.918;2023-09-30T15:03:15;8.30;;;3.00;;
13801;SDS011;6972;51.518;6.918;2023-09-30T15:05:41;6.90;;;3.40;;
13801;SDS011;6972;51.518;6.918;2023-09-30T15:08:07;5.63;;;2.90;;
13801;SDS011;6972;51.518;6.918;2023-09-30T15:10:35;5.03;;;2.70;;
13801;SDS011;6972;51.518;6.918;2023-09-30T15:13:01;7.32;;;3.03;;
13801;SDS011;6972;51.518;6.918;2023-09-30T15:15:29;5.85;;;3.03;;
13801;SDS011;6972;51.518;6.918;2023-09-30T15:17:55;5.75;;;2.90;;
13801;SDS011;6972;51.518;6.918;2023-09-30T15:20:21;6.80;;;3.15;;
13801;SDS011;6972;51.518;6.918;2023-09-30T15:22:50;10.85;;;3.22;;
13801;SDS011;6972;51.518;6.918;2023-09-30T15:25:17;6.45;;;2.92;;
13801;SDS011;6972;51.518;6.918;2023-09-30T15:27:45;10.00;;;3.60;;
13801;SDS011;6972;51.518;6.918;2023-09-30T15:30:14;41.72;;;33.33;;
13801;SDS011;6972;51.518;6.918;2023-09-30T15:32:40;8.50;;;5.70;;
13801;SDS011;6972;51.518;6.918;2023-09-30T15:35:06;5.63;;;3.30;;
13801;SDS011;6972;51.518;6.918;2023-09-30T15:37:32;5.75;;;3.40;;
13801;SDS011;6972;51.518;6.918;2023-09-30T15:39:58;7.00;;;3.63;;
13801;SDS011;6972;51.518;6.918;2023-09-30T15:42:25;7.53;;;3.83;;
13801;SDS011;6972;51.518;6.918;2023-09-30T15:44:51;6.68;;;3.40;;
13801;SDS011;6972;51.518;6.918;2023-09-30T15:47:21;5.72;;;3.38;;